Dades meteomassalio
Diari Summary for Marc 4, 2018 Units:  Metric    English   Both
« Previous Day
Next Day »
Diari Semanal Mensual Anual Personalitzat
  Maxima: Minima: Mijana:
Temperatura: -17.8 °C -15.9 °C -12.4 °C
Rosada: -17.8 °C -17.1 °C -15.2 °C
Humitat: Humidity % 48 % 72 %
Velocitat del vent: 0 km/h 0 km/h 8.9 km/h
Racha vent: 0 km/h - -
Vent:- - West
Pressio: 0 hPa 33799.1 hPa -
Pluja: 7.62 mm    
Historical Graphs
 
 
Tabular Data for Marc 4, 2018
Time Temperature Dew Point Pressure Wind Wind Speed Wind Gust Humidity Rainfall Rate (Hourly) solar Conditions
-17.8 °C -17.8 °C 0 hPa Calm     Humidity % 0 mm SolarRadiationWatts/m^2 W/m2 Conditions
00:03 -13.8 °C -15.9 °C 33890.5 hPa Calm     77 % 0 mm 0.0 W/m2 CLR
00:08 -14.1 °C -16.1 °C 33900.6 hPa Calm     78 % 0 mm 0.0 W/m2 CLR
00:13 -14.1 °C -16.1 °C 33900.6 hPa Calm     78 % 0 mm 0.0 W/m2 CLR
00:18 -14.1 °C -16.1 °C 33900.6 hPa Calm     78 % 0 mm 0.0 W/m2 CLR
00:23 -14.1 °C -16.1 °C 33890.5 hPa Calm     78 % 0 mm 0.0 W/m2 CLR
00:28 -14.4 °C -16.4 °C 33890.5 hPa Calm     77 % 0 mm 0.0 W/m2 CLR
00:33 -14.4 °C -16.4 °C 33890.5 hPa Calm     77 % 0 mm 0.0 W/m2 CLR
00:38 -14.4 °C -16.4 °C 33890.5 hPa Calm     77 % 0 mm 0.0 W/m2 CLR
00:43 -14.4 °C -16.7 °C 33890.5 hPa Calm     75 % 0 mm 0.0 W/m2 CLR
00:48 -14.4 °C -16.8 °C 33890.5 hPa Calm     74 % 0 mm 0.0 W/m2 CLR
00:53 -14.4 °C -16.9 °C 33890.5 hPa Calm     73 % 0 mm 0.0 W/m2 CLR
00:58 -14.4 °C -16.9 °C 33890.5 hPa Calm     73 % 0 mm 0.0 W/m2 CLR
01:03 -14.4 °C -16.8 °C 33890.5 hPa Calm     74 % 0 mm 0.0 W/m2 CLR
01:08 -14.1 °C -16.3 °C 33890.5 hPa Calm     75 % 0 mm 0.0 W/m2 CLR
01:13 -14.1 °C -16.2 °C 33890.5 hPa Calm     77 % 0 mm 0.0 W/m2 CLR
01:18 -14.1 °C -16.1 °C 33890.5 hPa Calm     78 % 0 mm 0.0 W/m2 CLR
01:23 -14.1 °C -16.1 °C 33880.3 hPa Calm     78 % 0 mm 0.0 W/m2 CLR
01:28 -14.1 °C -16.2 °C 33880.3 hPa Calm     77 % 0 mm 0.0 W/m2 CLR
01:33 -14.1 °C -16.2 °C 33880.3 hPa Calm     77 % 0 mm 0.0 W/m2 CLR
01:38 -14.1 °C -16.3 °C 33880.3 hPa Calm     76 % 0 mm 0.0 W/m2 CLR
01:43 -14.1 °C -16.2 °C 33880.3 hPa Calm     77 % 0 mm 0.0 W/m2 CLR
01:48 -14.1 °C -16.1 °C 33880.3 hPa Calm     78 % 0 mm 0.0 W/m2 CLR
01:53 -14.1 °C -15.9 °C 33880.3 hPa Calm     79 % 0 mm 0.0 W/m2 CLR
01:58 -14.1 °C -15.9 °C 33880.3 hPa Calm     79 % 0 mm 0.0 W/m2 CLR
02:03 -13.8 °C -15.7 °C 33880.3 hPa Calm     79 % 0 mm 0.0 W/m2 CLR
02:08 -13.8 °C -15.6 °C 33866.8 hPa Calm     80 % 0 mm 0.0 W/m2 CLR
02:13 -13.8 °C -15.7 °C 33866.8 hPa Calm     79 % 0 mm 0.0 W/m2 CLR
02:18 -13.8 °C -15.7 °C 33866.8 hPa Calm     78 % 0 mm 0.0 W/m2 CLR
02:23 -13.8 °C -15.7 °C 33866.8 hPa Calm     78 % 0 mm 0.0 W/m2 CLR
02:28 -13.8 °C -15.9 °C 33866.8 hPa Calm     77 % 0 mm 0.0 W/m2 CLR
02:33 -13.8 °C -15.7 °C 33856.6 hPa Calm     78 % 0 mm 0.0 W/m2 CLR
02:38 -13.8 °C -15.7 °C 33856.6 hPa Calm     78 % 0 mm 0.0 W/m2 CLR
02:43 -13.8 °C -15.7 °C 33856.6 hPa Calm     78 % 0 mm 0.0 W/m2 CLR
02:48 -13.8 °C -15.7 °C 33856.6 hPa Calm     78 % 0 mm 0.0 W/m2 CLR
02:53 -13.8 °C -15.7 °C 33856.6 hPa Calm     78 % 0 mm 0.0 W/m2 CLR
02:58 -13.8 °C -15.7 °C 33856.6 hPa Calm     79 % 0 mm 0.0 W/m2 CLR
03:03 -13.8 °C -15.6 °C 33856.6 hPa Calm     80 % 0 mm 0.0 W/m2 CLR
03:08 -13.8 °C -15.4 °C 33843.1 hPa Calm     81 % 0 mm 0.0 W/m2 CLR
03:13 -13.8 °C -15.4 °C 33843.1 hPa Calm     82 % 0 mm 0.0 W/m2 CLR
03:18 -13.8 °C -15.4 °C 33843.1 hPa Calm     82 % 0 mm 0.0 W/m2 CLR
03:24 -13.8 °C -15.4 °C 33843.1 hPa Calm     82 % 0 mm 0.0 W/m2 CLR
03:29 -13.8 °C -15.3 °C 33843.1 hPa Calm     83 % 0 mm 0.0 W/m2 CLR
03:34 -13.8 °C -15.3 °C 33843.1 hPa Calm     83 % 0 mm 0.0 W/m2 CLR
03:39 -13.8 °C -15.3 °C 33832.9 hPa Calm     83 % 0 mm 0.0 W/m2 CLR
03:44 -13.8 °C -15.3 °C 33832.9 hPa Calm     83 % 0 mm 0.0 W/m2 CLR
03:49 -13.8 °C -15.3 °C 33832.9 hPa Calm     83 % 0 mm 0.0 W/m2 CLR
03:54 -13.4 °C -14.9 °C 33832.9 hPa Calm     83 % 0 mm 0.0 W/m2 CLR
03:59 -13.4 °C -14.9 °C 33832.9 hPa Calm     83 % 0 mm 0.0 W/m2 CLR
04:04 -13.4 °C -14.9 °C 33832.9 hPa Calm     83 % 0 mm 0.0 W/m2 CLR
04:09 -13.4 °C -14.9 °C 33832.9 hPa Calm     83 % 0 mm 0.0 W/m2 CLR
04:14 -13.4 °C -14.9 °C 33832.9 hPa Calm     83 % 0 mm 0.0 W/m2 CLR
04:19 -13.4 °C -15.1 °C 33832.9 hPa Calm     82 % 0 mm 0.0 W/m2 CLR
04:24 -13.4 °C -15.1 °C 33832.9 hPa Calm     82 % 0 mm 0.0 W/m2 CLR
04:29 -13.4 °C -15.2 °C 33832.9 hPa Calm     81 % 0 mm 0.0 W/m2 CLR
04:34 -13.4 °C -15.2 °C 33832.9 hPa Calm     81 % 0 mm 0.0 W/m2 CLR
04:39 -13.4 °C -15.2 °C 33822.8 hPa Calm     81 % 0 mm 0.0 W/m2 CLR
04:44 -13.4 °C -15.2 °C 33822.8 hPa Calm     80 % 0 mm 0.0 W/m2 CLR
04:49 -13.4 °C -15.2 °C 33822.8 hPa Calm     81 % 0 mm 0.0 W/m2 CLR
04:54 -13.4 °C -15.1 °C 33822.8 hPa Calm     82 % 0 mm 0.0 W/m2 CLR
04:59 -13.4 °C -15.1 °C 33822.8 hPa Calm     82 % 0 mm 0.0 W/m2 CLR
05:04 -13.8 °C -15.3 °C 33822.8 hPa Calm     83 % 0 mm 0.0 W/m2 CLR
05:09 -13.8 °C -15.3 °C 33822.8 hPa Calm     83 % 0 mm 0.0 W/m2 CLR
05:14 -13.8 °C -15.3 °C 33809.2 hPa Calm     83 % 0 mm 0.0 W/m2 CLR
05:19 -13.8 °C -15.3 °C 33809.2 hPa Calm     83 % 0 mm 0.0 W/m2 CLR
05:24 -13.8 °C -15.4 °C 33809.2 hPa Calm     82 % 0 mm 0.0 W/m2 CLR
05:29 -13.8 °C -15.4 °C 33809.2 hPa Calm     82 % 0 mm 0.0 W/m2 CLR
05:34 -13.8 °C -15.4 °C 33809.2 hPa Calm     82 % 0 mm 0.0 W/m2 CLR
05:39 -13.8 °C -15.4 °C 33809.2 hPa Calm     82 % 0 mm 0.0 W/m2 CLR
05:44 -13.8 °C -15.4 °C 33809.2 hPa Calm     82 % 0 mm 0.0 W/m2 CLR
05:49 -13.8 °C -15.4 °C 33809.2 hPa Calm     82 % 0 mm 0.0 W/m2 CLR
05:54 -13.8 °C -15.3 °C 33809.2 hPa Calm     83 % 0 mm 0.0 W/m2 CLR
05:59 -13.8 °C -15.2 °C 33809.2 hPa Calm     84 % 0 mm 0.0 W/m2 CLR
06:04 -13.8 °C -15.2 °C 33822.8 hPa Calm     84 % 0 mm 0.0 W/m2 CLR
06:09 -13.8 °C -15.2 °C 33822.8 hPa Calm     84 % 0 mm 0.0 W/m2 CLR
06:14 -13.4 °C -14.8 °C 33822.8 hPa Calm     85 % 0 mm 0.0 W/m2 CLR
06:19 -13.4 °C -14.8 °C 33822.8 hPa Calm     85 % 0 mm 0.0 W/m2 CLR
06:24 -13.4 °C -14.7 °C 33809.2 hPa Calm     86 % 0 mm 0.0 W/m2 CLR
06:29 -13.4 °C -14.7 °C 33809.2 hPa Calm     86 % 0 mm 0.0 W/m2 CLR
06:34 -13.4 °C -14.8 °C 33809.2 hPa Calm     85 % 0 mm 0.0 W/m2 CLR
06:39 -13.2 °C -14.4 °C 33809.2 hPa Calm     86 % 0 mm 0.0 W/m2 CLR
06:44 -13.2 °C -14.4 °C 33809.2 hPa Calm     86 % 0 mm 0.0 W/m2 CLR
06:49 -13.2 °C -14.4 °C 33809.2 hPa Calm     86 % 0 mm 0.0 W/m2 CLR
06:54 -13.2 °C -14.4 °C 33799.1 hPa Calm     86 % 0 mm 0.0 W/m2 CLR
06:59 -13.2 °C -14.5 °C 33799.1 hPa Calm     85 % 0 mm 0.0 W/m2 CLR
07:04 -13.2 °C -14.5 °C 33809.2 hPa Calm     85 % 0 mm 0.0 W/m2 CLR
07:09 -13.2 °C -14.7 °C 33799.1 hPa Calm     83 % 0 mm 0.0 W/m2 CLR
07:14 -13.2 °C -14.8 °C 33799.1 hPa Calm     82 % 0 mm 0.0 W/m2 CLR
07:19 -13.2 °C -14.8 °C 33809.2 hPa Calm     81 % 0 mm 0.0 W/m2 OVC
07:24 -13.2 °C -14.9 °C 33809.2 hPa Calm     80 % 0 mm 0.0 W/m2 OVC
07:29 -13.2 °C -14.9 °C 33809.2 hPa Calm     80 % 0 mm 0.0 W/m2 OVC
07:34 -13.2 °C -14.9 °C 33809.2 hPa Calm     80 % 0 mm 0.0 W/m2 OVC
07:39 -13.2 °C -14.8 °C 33809.2 hPa Calm     81 % 0 mm 7.0 W/m2 OVC
07:44 -13.2 °C -14.8 °C 33809.2 hPa Calm     82 % 0 mm 23.0 W/m2 BKN
07:49 -13.2 °C -14.8 °C 33809.2 hPa Calm     82 % 0 mm 37.0 W/m2 BKN
07:54 -13.2 °C -14.8 °C 33809.2 hPa Calm     82 % 0 mm 46.0 W/m2 SCT
07:59 -13.2 °C -14.8 °C 33822.8 hPa Calm     82 % 0 mm 40.0 W/m2 BKN
08:04 -13.2 °C -14.7 °C 33822.8 hPa Calm     83 % 0 mm 25.0 W/m2 BKN
08:09 -13.2 °C -14.7 °C 33822.8 hPa Calm     83 % 0 mm 26.0 W/m2 BKN
08:14 -12.8 °C -14.3 °C 33822.8 hPa Calm     83 % 0 mm 35.0 W/m2 BKN
08:19 -12.8 °C -14.3 °C 33822.8 hPa Calm     84 % 0 mm 42.0 W/m2 BKN
08:24 -12.8 °C -14.3 °C 33822.8 hPa Calm     84 % 0 mm 49.0 W/m2 SCT
08:29 -12.8 °C -14.2 °C 33822.8 hPa Calm     85 % 0 mm 63.0 W/m2 SCT
08:34 -12.8 °C -14.2 °C 33822.8 hPa Calm     85 % 0 mm 81.0 W/m2 SCT
08:39 -12.6 °C -13.8 °C 33822.8 hPa Calm     85 % 0 mm 81.0 W/m2 FEW
08:44 -12.6 °C -13.8 °C 33822.8 hPa Calm     86 % 0 mm 84.0 W/m2 FEW
08:49 -12.6 °C -13.8 °C 33822.8 hPa Calm     86 % 0 mm 90.0 W/m2 FEW
08:54 -12.6 °C -13.8 °C 33822.8 hPa Calm     86 % 0 mm 111.0 W/m2 CLR
08:59 -12.2 °C -13.4 °C 33832.9 hPa Calm     86 % 0 mm 130.0 W/m2 CLR
09:04 -12.2 °C -13.4 °C 33822.8 hPa Calm     86 % 0 mm 153.0 W/m2 CLR
09:09 -12.2 °C -13.6 °C 33822.8 hPa Calm     85 % 0 mm 156.0 W/m2 CLR
09:14 -11.9 °C -13.2 °C 33822.8 hPa Calm     86 % 7.62 mm 149.0 W/m2 RA
09:19 -11.9 °C -13.2 °C 33822.8 hPa Calm     86 % 7.62 mm 195.0 W/m2 CLR
09:24 -11.9 °C -13.2 °C 33822.8 hPa Calm     86 % 7.62 mm 197.0 W/m2 CLR
09:29 -11.6 °C -12.9 °C 33822.8 hPa Calm     86 % 7.62 mm 220.0 W/m2 CLR
09:34 -11.6 °C -12.9 °C 33822.8 hPa Calm     85 % 7.62 mm 281.0 W/m2 CLR
09:39 -11.6 °C -12.9 °C 33822.8 hPa Calm     85 % 7.62 mm 348.0 W/m2 CLR
09:44 -11.3 °C -12.7 °C 33822.8 hPa Calm     84 % 7.62 mm 153.0 W/m2 CLR
09:49 -11 °C -12.7 °C 33822.8 hPa Calm     82 % 7.62 mm 158.0 W/m2 CLR
09:54 -11 °C -12.7 °C 33822.8 hPa Calm     81 % 7.62 mm 195.0 W/m2 CLR
09:59 -11 °C -12.7 °C 33822.8 hPa Calm     81 % 7.62 mm 265.0 W/m2 CLR
10:05 -11 °C -12.7 °C 33822.8 hPa Calm     81 % 7.62 mm 204.0 W/m2 CLR
10:10 -11 °C -12.8 °C 33832.9 hPa Calm     80 % 7.62 mm 241.0 W/m2 CLR
10:15 -11 °C -12.8 °C 33822.8 hPa Calm     80 % 0 mm 251.0 W/m2 CLR
10:20 -10.7 °C -12.7 °C 33832.9 hPa Calm     79 % 0 mm 214.0 W/m2 CLR
10:25 -10.7 °C -12.7 °C 33832.9 hPa Calm     79 % 0 mm 343.0 W/m2 CLR
10:30 -10.4 °C -12.4 °C 33832.9 hPa Calm     78 % 0 mm 276.0 W/m2 CLR
10:35 -10.1 °C -13.1 °C 33822.8 hPa NNW 32.8 km/h 32.8 km/h 70 % 0 mm 269.0 W/m2 CLR
10:40 -9.8 °C -13.2 °C 33832.9 hPa North 47.6 km/h 47.6 km/h 66 % 0 mm 176.0 W/m2 CLR
10:45 -10.1 °C -13.1 °C 33843.1 hPa NW 44.1 km/h 44.1 km/h 70 % 0 mm 265.0 W/m2 CLR
10:50 -10.4 °C -13 °C 33843.1 hPa WNW 41.7 km/h 41.7 km/h 73 % 0 mm 410.0 W/m2 CLR
10:55 -10.1 °C -12.8 °C 33843.1 hPa NW 44.7 km/h 44.7 km/h 72 % 0 mm 234.0 W/m2 CLR
11:00 -10.4 °C -13.3 °C 33843.1 hPa NW 26.9 km/h 26.9 km/h 70 % 0 mm 220.0 W/m2 CLR
11:05 -10.4 °C -13.3 °C 33843.1 hPa West 11.9 km/h 11.9 km/h 70 % 0 mm 258.0 W/m2 CLR
11:10 -10.1 °C -13.3 °C 33843.1 hPa WNW 23.3 km/h 23.3 km/h 68 % 0 mm 309.0 W/m2 CLR
11:15 -10.1 °C -13.3 °C 33843.1 hPa NW 23.8 km/h 23.8 km/h 68 % 0 mm 232.0 W/m2 CLR
11:20 -10.4 °C -14.1 °C 33843.1 hPa NNW 29.8 km/h 29.8 km/h 64 % 0 mm 265.0 W/m2 CLR
11:25 -10.4 °C -14.1 °C 33832.9 hPa West 23.8 km/h 23.8 km/h 64 % 0 mm 322.0 W/m2 CLR
11:30 -10.4 °C -14.2 °C 33843.1 hPa WNW 26.9 km/h 26.9 km/h 63 % 0 mm 425.0 W/m2 CLR
11:35 -10.1 °C -14.1 °C 33832.9 hPa SW 29.8 km/h 29.8 km/h 62 % 0 mm 615.0 W/m2 CLR
11:40 -10.1 °C -14.1 °C 33832.9 hPa West 29.8 km/h 29.8 km/h 62 % 0 mm 635.0 W/m2 CLR
11:45 -9.8 °C -13.6 °C 33832.9 hPa NW 29.8 km/h 29.8 km/h 63 % 0 mm 661.0 W/m2 CLR
11:50 -9.4 °C -13.6 °C 33832.9 hPa WNW 32.8 km/h 32.8 km/h 61 % 0 mm 496.0 W/m2 CLR
11:55 -9.1 °C -13.6 °C 33822.8 hPa West 41.7 km/h 41.7 km/h 59 % 0 mm 775.0 W/m2 CLR
12:00 -9.1 °C -13.6 °C 33832.9 hPa WSW 26.9 km/h 26.9 km/h 59 % 0 mm 267.0 W/m2 CLR
12:05 -9.4 °C -14.3 °C 33832.9 hPa WNW 38.8 km/h 38.8 km/h 56 % 0 mm 237.0 W/m2 CLR
12:10 -9.4 °C -14.3 °C 33832.9 hPa NW 35.7 km/h 35.7 km/h 56 % 0 mm 246.0 W/m2 CLR
12:15 -9.8 °C -14.6 °C 33832.9 hPa NW 47.6 km/h 47.6 km/h 56 % 0 mm 316.0 W/m2 CLR
12:20 -9.8 °C -14.4 °C 33832.9 hPa NW 28.5 km/h 28.5 km/h 57 % 0 mm 385.0 W/m2 CLR
12:25 -9.8 °C -14.6 °C 33832.9 hPa NW 23.8 km/h 23.8 km/h 56 % 0 mm 483.0 W/m2 CLR
12:30 -9.4 °C -14.3 °C 33832.9 hPa NNW 38.8 km/h 38.8 km/h 56 % 0 mm 534.0 W/m2 CLR
12:35 -9.4 °C -14.3 °C 33843.1 hPa NNW 44.7 km/h 44.7 km/h 56 % 0 mm 522.0 W/m2 CLR
12:40 -9.1 °C -13.8 °C 33843.1 hPa NW 32.8 km/h 32.8 km/h 57 % 0 mm 415.0 W/m2 CLR
12:45 -9.4 °C -14.3 °C 33843.1 hPa NW 29.8 km/h 29.8 km/h 56 % 0 mm 325.0 W/m2 CLR
12:50 -9.4 °C -14.3 °C 33843.1 hPa North 47.6 km/h 47.6 km/h 56 % 0 mm 287.0 W/m2 CLR
12:55 -9.4 °C -14.3 °C 33843.1 hPa NNW 41.7 km/h 41.7 km/h 56 % 0 mm 251.0 W/m2 CLR
13:00 -9.4 °C -14.4 °C 33843.1 hPa NNW 44.7 km/h 44.7 km/h 55 % 0 mm 225.0 W/m2 CLR
13:05 -9.4 °C -14.6 °C 33843.1 hPa NNW 41.7 km/h 41.7 km/h 54 % 0 mm 214.0 W/m2 CLR
13:10 -9.4 °C -14.6 °C 33843.1 hPa NNW 38.8 km/h 38.8 km/h 54 % 0 mm 206.0 W/m2 CLR
13:15 -9.8 °C -14.9 °C 33843.1 hPa NNW 29.8 km/h 29.8 km/h 54 % 0 mm 206.0 W/m2 CLR
13:20 -9.8 °C -15 °C 33843.1 hPa NNW 41.7 km/h 41.7 km/h 53 % 0 mm 192.0 W/m2 CLR
13:25 -9.8 °C -15 °C 33832.9 hPa NNW 29.8 km/h 29.8 km/h 53 % 0 mm 195.0 W/m2 CLR
13:30 -9.8 °C -14.9 °C 33832.9 hPa NNW 26.9 km/h 26.9 km/h 54 % 0 mm 185.0 W/m2 CLR
13:35 -9.8 °C -14.9 °C 33832.9 hPa NNW 26.9 km/h 26.9 km/h 54 % 0 mm 167.0 W/m2 CLR
13:40 -9.8 °C -14.6 °C 33832.9 hPa NW 23.3 km/h 23.3 km/h 56 % 0 mm 148.0 W/m2 CLR
13:45 -9.8 °C -14.9 °C 33832.9 hPa WNW 26.9 km/h 26.9 km/h 54 % 0 mm 132.0 W/m2 CLR
13:50 -10.1 °C -15.3 °C 33822.8 hPa West 25.9 km/h 25.9 km/h 53 % 0 mm 125.0 W/m2 CLR
13:55 -10.1 °C -15.2 °C 33822.8 hPa WNW 12.9 km/h 12.9 km/h 54 % 0 mm 178.0 W/m2 CLR
14:00 -9.8 °C -15 °C 33822.8 hPa West 26.9 km/h 26.9 km/h 53 % 0 mm 197.0 W/m2 CLR
14:05 -9.8 °C -15 °C 33822.8 hPa West 3.1 km/h 3.1 km/h 53 % 0 mm 200.0 W/m2 CLR
14:10 -9.8 °C -14.9 °C 33822.8 hPa West 15 km/h 15 km/h 54 % 0 mm 202.0 W/m2 CLR
14:15 -9.8 °C -15 °C 33822.8 hPa NW 20.9 km/h 20.9 km/h 53 % 0 mm 207.0 W/m2 CLR
14:20 -9.8 °C -15 °C 33822.8 hPa WNW 17.9 km/h 17.9 km/h 53 % 0 mm 220.0 W/m2 CLR
14:25 -9.8 °C -15.2 °C 33822.8 hPa WNW 3.1 km/h 3.1 km/h 52 % 0 mm 204.0 W/m2 CLR
14:26 -9.8 °C -15.2 °C 33822.8 hPa WNW 3.1 km/h   52 % 0 mm 204.0 W/m2 CLR
14:31 -9.4 °C -15.1 °C 33822.8 hPa West 6 km/h 6 km/h 51 % 0 mm 197.0 W/m2 CLR
14:36 -9.4 °C -14.9 °C 33822.8 hPa WNW 3.1 km/h 3.1 km/h 52 % 0 mm 199.0 W/m2 CLR
14:41 -9.4 °C -14.7 °C 33822.8 hPa Calm     53 % 0 mm 186.0 W/m2 CLR
14:46 -9.4 °C -15.2 °C 33822.8 hPa WNW 20.9 km/h 20.9 km/h 50 % 0 mm 169.0 W/m2 CLR
14:51 -9.4 °C -15.5 °C 33822.8 hPa WNW 15.6 km/h 15.6 km/h 48 % 0 mm 171.0 W/m2 CLR
14:56 -9.8 °C -15.4 °C 33822.8 hPa NW 15 km/h 15 km/h 50 % 0 mm 155.0 W/m2 CLR
15:01 -9.8 °C -15.2 °C 33822.8 hPa Calm     52 % 0 mm 153.0 W/m2 CLR
15:06 -9.8 °C -15.4 °C 33822.8 hPa NW 18.2 km/h 18.2 km/h 50 % 0 mm 169.0 W/m2 CLR
15:11 -9.4 °C -15.2 °C 33822.8 hPa NNW 23.8 km/h 23.8 km/h 50 % 0 mm 167.0 W/m2 CLR
15:16 -9.4 °C -15.1 °C 33832.9 hPa North 29.8 km/h 29.8 km/h 51 % 0 mm 165.0 W/m2 CLR
15:21 -9.8 °C -15.2 °C 33832.9 hPa North 29.8 km/h 29.8 km/h 52 % 0 mm 174.0 W/m2 CLR
15:26 -9.8 °C -14.9 °C 33832.9 hPa NNW 31.1 km/h 31.1 km/h 54 % 0 mm 174.0 W/m2 CLR
15:31 -9.8 °C -14.9 °C 33832.9 hPa North 23.8 km/h 23.8 km/h 54 % 0 mm 183.0 W/m2 CLR
15:36 -9.8 °C -14.6 °C 33832.9 hPa NNW 23.8 km/h 23.8 km/h 56 % 0 mm 207.0 W/m2 CLR
15:41 -9.8 °C -14.7 °C 33832.9 hPa NW 26.9 km/h 26.9 km/h 55 % 0 mm 234.0 W/m2 CLR
15:46 -9.8 °C -15 °C 33832.9 hPa North 29.8 km/h 29.8 km/h 53 % 0 mm 253.0 W/m2 CLR
15:51 -9.4 °C -14.7 °C 33832.9 hPa NW 29.8 km/h 29.8 km/h 53 % 0 mm 292.0 W/m2 CLR
15:56 -9.4 °C -14.4 °C 33832.9 hPa North 29.8 km/h 29.8 km/h 55 % 0 mm 318.0 W/m2 CLR
16:01 -9.4 °C -14.4 °C 33832.9 hPa NNE 29.8 km/h 29.8 km/h 55 % 0 mm 359.0 W/m2 CLR
16:06 -9.4 °C -14.3 °C 33832.9 hPa North 32.8 km/h 32.8 km/h 56 % 0 mm 323.0 W/m2 CLR
16:11 -9.4 °C -14.4 °C 33843.1 hPa NNW 29.8 km/h 29.8 km/h 55 % 0 mm 265.0 W/m2 CLR
16:16 -9.4 °C -14.1 °C 33843.1 hPa NNW 29.8 km/h 29.8 km/h 57 % 0 mm 241.0 W/m2 CLR
16:21 -9.4 °C -14.1 °C 33843.1 hPa NW 26.9 km/h 26.9 km/h 57 % 0 mm 216.0 W/m2 CLR
16:26 -9.4 °C -14.3 °C 33843.1 hPa NNW 20.9 km/h 20.9 km/h 56 % 0 mm 241.0 W/m2 CLR
16:31 -9.4 °C -14 °C 33843.1 hPa North 23.8 km/h 23.8 km/h 58 % 0 mm 327.0 W/m2 CLR
16:36 -9.4 °C -14 °C 33843.1 hPa North 17.9 km/h 17.9 km/h 58 % 0 mm 216.0 W/m2 CLR
16:41 -9.4 °C -14.3 °C 33843.1 hPa North 29.8 km/h 29.8 km/h 56 % 0 mm 153.0 W/m2 CLR
16:46 -9.8 °C -14.6 °C 33843.1 hPa North 23.8 km/h 23.8 km/h 56 % 0 mm 142.0 W/m2 CLR
16:51 -9.8 °C -14.6 °C 33843.1 hPa NNW 23.3 km/h 23.3 km/h 56 % 0 mm 172.0 W/m2 CLR
16:56 -9.8 °C -14.4 °C 33843.1 hPa North 26.9 km/h 26.9 km/h 57 % 0 mm 202.0 W/m2 CLR
17:01 -9.8 °C -14.4 °C 33843.1 hPa NNW 26.9 km/h 26.9 km/h 57 % 0 mm 188.0 W/m2 CLR
17:06 -9.8 °C -14.4 °C 33843.1 hPa North 33.6 km/h 33.6 km/h 57 % 0 mm 176.0 W/m2 CLR
17:11 -9.8 °C -14.3 °C 33856.6 hPa NNW 26.9 km/h 26.9 km/h 58 % 0 mm 195.0 W/m2 CLR
17:16 -9.8 °C -14.2 °C 33856.6 hPa North 29.8 km/h 29.8 km/h 59 % 0 mm 153.0 W/m2 CLR
17:21 -9.8 °C -14.2 °C 33856.6 hPa NNW 29.8 km/h 29.8 km/h 59 % 0 mm 308.0 W/m2 CLR
17:26 -9.8 °C -14.3 °C 33856.6 hPa North 29.8 km/h 29.8 km/h 58 % 0 mm 197.0 W/m2 CLR
17:31 -9.8 °C -14.3 °C 33856.6 hPa North 23.8 km/h 23.8 km/h 58 % 0 mm 162.0 W/m2 CLR
17:36 -9.8 °C -14.2 °C 33856.6 hPa North 25.9 km/h 25.9 km/h 59 % 0 mm 190.0 W/m2 CLR
17:41 -9.8 °C -14.3 °C 33856.6 hPa North 20.9 km/h 20.9 km/h 58 % 0 mm 144.0 W/m2 CLR
17:44 -10.1 °C -14.4 °C 33856.6 hPa NNE 23.8 km/h 23.8 km/h 59 % 0 mm 176.0 W/m2 CLR
17:50 -10.1 °C -14.7 °C 33866.8 hPa North 29.8 km/h 29.8 km/h 57 % 0 mm 174.0 W/m2 CLR
17:55 -10.1 °C -14.7 °C 33866.8 hPa NNE 20.9 km/h 20.9 km/h 57 % 0 mm 146.0 W/m2 CLR
18:00 -10.1 °C -14.9 °C 33866.8 hPa NNE 23.8 km/h 23.8 km/h 56 % 0 mm 130.0 W/m2 CLR
18:05 -10.1 °C -14.9 °C 33866.8 hPa North 23.8 km/h 23.8 km/h 56 % 0 mm 118.0 W/m2 CLR
18:10 -10.4 °C -15 °C 33866.8 hPa NNE 20.9 km/h 20.9 km/h 57 % 0 mm 95.0 W/m2 CLR
18:15 -10.4 °C -15.2 °C 33866.8 hPa North 23.8 km/h 23.8 km/h 56 % 0 mm 84.0 W/m2 CLR
18:20 -10.4 °C -15.2 °C 33866.8 hPa North 17.9 km/h 17.9 km/h 56 % 0 mm 70.0 W/m2 FEW
18:25 -10.4 °C -15.2 °C 33866.8 hPa Calm     56 % 0 mm 54.0 W/m2 SCT
18:30 -10.4 °C -15.2 °C 33866.8 hPa Calm     56 % 0 mm 37.0 W/m2 BKN
18:35 -10.7 °C -15.4 °C 33856.6 hPa Calm     56 % 0 mm 28.0 W/m2 BKN
18:40 -11 °C -15.7 °C 33866.8 hPa Calm     56 % 0 mm 21.0 W/m2 BKN
18:45 -11.3 °C -15.7 °C 33866.8 hPa Calm     58 % 0 mm 14.0 W/m2 BKN
18:50 -11.6 °C -15.9 °C 33866.8 hPa Calm     59 % 0 mm 7.0 W/m2 BKN
18:55 -11.9 °C -15.9 °C 33866.8 hPa Calm     61 % 0 mm 0.0 W/m2 OVC
19:00 -12.2 °C -16.1 °C 33866.8 hPa Calm     62 % 0 mm 0.0 W/m2 OVC
19:05 -12.6 °C -16.2 °C 33866.8 hPa Calm     64 % 0 mm 0.0 W/m2 CLR
19:10 -12.6 °C -15.9 °C 33866.8 hPa Calm     66 % 0 mm 0.0 W/m2 CLR
19:15 -12.8 °C -16.1 °C 33866.8 hPa Calm     67 % 0 mm 0.0 W/m2 CLR
19:20 -12.8 °C -15.9 °C 33866.8 hPa Calm     68 % 0 mm 0.0 W/m2 CLR
19:25 -12.8 °C -15.8 °C 33880.3 hPa Calm     69 % 0 mm 0.0 W/m2 CLR
19:30 -12.8 °C -15.8 °C 33880.3 hPa Calm     69 % 0 mm 0.0 W/m2 CLR
19:35 -13.2 °C -16 °C 33880.3 hPa Calm     70 % 0 mm 0.0 W/m2 CLR
19:40 -13.2 °C -16 °C 33880.3 hPa Calm     70 % 0 mm 0.0 W/m2 CLR
19:45 -13.2 °C -15.9 °C 33890.5 hPa Calm     71 % 0 mm 0.0 W/m2 CLR
19:50 -13.4 °C -16.1 °C 33890.5 hPa Calm     72 % 0 mm 0.0 W/m2 CLR
19:55 -13.4 °C -16 °C 33890.5 hPa Calm     73 % 0 mm 0.0 W/m2 CLR
20:00 -13.8 °C -16.2 °C 33890.5 hPa Calm     74 % 0 mm 0.0 W/m2 CLR
20:05 -14.1 °C -16.3 °C 33900.6 hPa Calm     75 % 0 mm 0.0 W/m2 CLR
20:10 -14.1 °C -16.3 °C 33900.6 hPa Calm     76 % 0 mm 0.0 W/m2 CLR
20:15 -14.1 °C -16.2 °C 33900.6 hPa Calm     77 % 0 mm 0.0 W/m2 CLR
20:20 -14.4 °C -16.3 °C 33900.6 hPa Calm     78 % 0 mm 0.0 W/m2 CLR
20:25 -14.4 °C -16.3 °C 33900.6 hPa Calm     79 % 0 mm 0.0 W/m2 CLR
20:30 -14.7 °C -16.6 °C 33900.6 hPa Calm     79 % 0 mm 0.0 W/m2 CLR
20:35 -14.7 °C -16.4 °C 33900.6 hPa Calm     80 % 0 mm 0.0 W/m2 CLR
20:40 -15 °C -16.7 °C 33900.6 hPa Calm     81 % 0 mm 0.0 W/m2 CLR
20:45 -15 °C -16.7 °C 33900.6 hPa Calm     81 % 0 mm 0.0 W/m2 CLR
20:50 -15.3 °C -16.9 °C 33900.6 hPa Calm     82 % 0 mm 0.0 W/m2 CLR
20:55 -15.3 °C -16.9 °C 33900.6 hPa Calm     82 % 0 mm 0.0 W/m2 CLR
21:00 -15.3 °C -16.9 °C 33900.6 hPa Calm     82 % 0 mm 0.0 W/m2 CLR
21:05 -15.3 °C -16.9 °C 33900.6 hPa Calm     82 % 0 mm 0.0 W/m2 CLR
21:10 -15.3 °C -16.9 °C 33900.6 hPa Calm     82 % 0 mm 0.0 W/m2 CLR
21:15 -15.6 °C -17.1 °C 33914.2 hPa Calm     83 % 0 mm 0.0 W/m2 CLR
21:20 -15.6 °C -17.1 °C 33914.2 hPa Calm     83 % 0 mm 0.0 W/m2 CLR
21:25 -15.6 °C -17 °C 33914.2 hPa Calm     84 % 0 mm 0.0 W/m2 CLR
21:30 -15.6 °C -17 °C 33914.2 hPa Calm     84 % 0 mm 0.0 W/m2 CLR
21:35 -15.6 °C -16.9 °C 33914.2 hPa Calm     85 % 0 mm 0.0 W/m2 CLR
21:40 -15.6 °C -17 °C 33914.2 hPa Calm     84 % 0 mm 0.0 W/m2 CLR
21:45 -15.6 °C -16.9 °C 33900.6 hPa Calm     85 % 0 mm 0.0 W/m2 CLR
21:50 -15.6 °C -16.9 °C 33900.6 hPa Calm     85 % 0 mm 0.0 W/m2 CLR
21:55 -15.3 °C -16.6 °C 33914.2 hPa Calm     85 % 0 mm 0.0 W/m2 CLR
22:00 -15.3 °C -16.5 °C 33914.2 hPa Calm     86 % 0 mm 0.0 W/m2 CLR
22:05 -15.3 °C -16.5 °C 33914.2 hPa Calm     86 % 0 mm 0.0 W/m2 CLR
22:10 -15.6 °C -16.8 °C 33914.2 hPa Calm     86 % 0 mm 0.0 W/m2 CLR
22:15 -15.6 °C -16.9 °C 33914.2 hPa Calm     85 % 0 mm 0.0 W/m2 CLR
22:20 -15.3 °C -16.6 °C 33914.2 hPa Calm     85 % 0 mm 0.0 W/m2 CLR
22:25 -15.6 °C -16.9 °C 33914.2 hPa Calm     85 % 0 mm 0.0 W/m2 CLR
22:30 -15.3 °C -16.6 °C 33914.2 hPa Calm     85 % 0 mm 0.0 W/m2 CLR
22:35 -15.6 °C -16.8 °C 33914.2 hPa Calm     86 % 0 mm 0.0 W/m2 CLR
22:40 -15.6 °C -16.8 °C 33914.2 hPa Calm     86 % 0 mm 0.0 W/m2 CLR
22:45 -15.6 °C -16.9 °C 33914.2 hPa Calm     85 % 0 mm 0.0 W/m2 CLR
22:51 -15.6 °C -16.8 °C 33914.2 hPa Calm     86 % 0 mm 0.0 W/m2 CLR
22:56 -15.6 °C -16.8 °C 33914.2 hPa Calm     86 % 0 mm 0.0 W/m2 CLR
23:01 -15.6 °C -16.8 °C 33914.2 hPa Calm     86 % 0 mm 0.0 W/m2 CLR
23:06 -15.6 °C -16.8 °C 33914.2 hPa Calm     86 % 0 mm 0.0 W/m2 CLR
23:11 -15.6 °C -16.8 °C 33914.2 hPa Calm     86 % 0 mm 0.0 W/m2 CLR
23:16 -15.6 °C -16.7 °C 33914.2 hPa Calm     87 % 0 mm 0.0 W/m2 CLR
23:21 -15.6 °C -16.7 °C 33914.2 hPa Calm     87 % 0 mm 0.0 W/m2 CLR
23:26 -15.6 °C -16.7 °C 33914.2 hPa Calm     87 % 0 mm 0.0 W/m2 CLR
23:31 -15.6 °C -16.7 °C 33900.6 hPa Calm     87 % 0 mm 0.0 W/m2 CLR
23:36 -15.6 °C -16.7 °C 33900.6 hPa Calm     87 % 0 mm 0.0 W/m2 CLR
23:41 -15.6 °C -16.7 °C 33900.6 hPa Calm     87 % 0 mm 0.0 W/m2 CLR
23:46 -15.6 °C -16.7 °C 33900.6 hPa Calm     87 % 0 mm 0.0 W/m2 CLR
23:51 -15.9 °C -17 °C 33900.6 hPa Calm     87 % 0 mm 0.0 W/m2 CLR
23:56 -15.6 °C -16.7 °C 33900.6 hPa Calm     87 % 0 mm 0.0 W/m2 CLR
Lo Temps de Massalio
Compliments of Weather Underground - 1.25 mb